This is the latest recevied weather packets stored in our database for station/object KJ4EWA. If no packets are shown the sender has not sent any weather packets the latest 10 day(s).
| Time | Temp. | Humidity | Pressure | Rain* | Wind** | Luminosity | Snow |
|---|---|---|---|---|---|---|---|
| 1777755101 | 25° C | 68% | 1016.3 hPa | 0 mm | - | 531 W/m² | - |
| 1777754798 | 23.89° C | 63% | 1016.1 hPa | 0 mm | - | 587 W/m² | - |
| 1777754496 | 25° C | 64% | 1016.4 hPa | 0 mm | - | 185 W/m² | - |
| 1777754192 | 23.89° C | 71% | 1016 hPa | 0 mm | - | 527 W/m² | - |
| 1777753891 | 23.89° C | 66% | 1016.1 hPa | 0.51 mm | - | 481 W/m² | - |
| 1777753585 | 23.89° C | 71% | 1016.1 hPa | 0 mm | - | 614 W/m² | - |
| 1777753283 | 23.33° C | 68% | 1016.2 hPa | 0 mm | - | 581 W/m² | - |
| 1777752980 | 22.22° C | 78% | 1016.3 hPa | 0 mm | - | 667 W/m² | - |
| 1777752677 | 22.22° C | 70% | 1016.5 hPa | 0 mm | - | 609 W/m² | - |
| 1777752372 | 21.67° C | 80% | 1016.7 hPa | 0 mm | - | 170 W/m² | - |
| 1777752069 | 22.22° C | 75% | 1016.4 hPa | 0.51 mm | - | 126 W/m² | - |
| 1777751768 | 22.78° C | 67% | 1016.6 hPa | 0.51 mm | - | 91 W/m² | - |
| 1777751457 | 22.78° C | 74% | 1016.6 hPa | 0 mm | - | 437 W/m² | - |
| 1777751154 | 21.67° C | 76% | 1016.7 hPa | 0 mm | - | 231 W/m² | - |
| 1777750850 | 22.22° C | 74% | 1016.6 hPa | 0 mm | - | 124 W/m² | - |
| 1777750548 | 22.78° C | 72% | 1016.9 hPa | 0 mm | - | 147 W/m² | - |
| 1777750244 | 22.78° C | 70% | 1017 hPa | 0 mm | - | 772 W/m² | - |
| 1777749940 | 21.67° C | 77% | 1016.7 hPa | 0.51 mm | - | 760 W/m² | - |
| 1777749638 | 21.11° C | 80% | 1017.2 hPa | 0 mm | - | 179 W/m² | - |
| 1777749334 | 21.11° C | 82% | 1016.9 hPa | 0 mm | - | 206 W/m² | - |
| 1777749033 | 21.11° C | 74% | 1017.1 hPa | 0 mm | - | 174 W/m² | - |
| 1777748730 | 21.67° C | 74% | 1017.1 hPa | 0 mm | - | 161 W/m² | - |
| 1777748427 | 21.67° C | 75% | 1017.3 hPa | 0 mm | - | 746 W/m² | - |
| 1777748121 | 21.11° C | 79% | 1017.4 hPa | 0.51 mm | - | 573 W/m² | - |
| 1777747819 | 22.22° C | 70% | 1017.2 hPa | 0 mm | - | 232 W/m² | - |
* Rain latest hour (hover to see other rain measurements)
** Current wind speed in m/s (hover to see current wind gust speed)